createdAt,value
2019-04-23T00:01:59.750Z,1.80
2019-04-23T00:04:15.416Z,1.83
2019-04-23T00:06:53.761Z,2.20
2019-04-23T00:09:32.890Z,2.57
2019-04-23T00:11:47.687Z,1.60
2019-04-23T00:14:23.933Z,1.67
2019-04-23T00:16:51.171Z,2.10
2019-04-23T00:19:24.803Z,1.70
2019-04-23T00:22:20.477Z,2.23
2019-04-23T00:32:34.586Z,1.57
2019-04-23T00:37:35.357Z,1.63
2019-04-23T00:40:03.490Z,1.53
2019-04-23T00:45:12.372Z,1.20
2019-04-23T00:47:48.645Z,1.20
2019-04-23T00:52:45.692Z,2.07
2019-04-23T00:55:14.482Z,2.13
2019-04-23T00:57:48.502Z,2.43
2019-04-23T01:00:27.358Z,2.70
2019-04-23T01:02:52.880Z,1.53
2019-04-23T01:05:24.070Z,1.83
2019-04-23T01:07:58.691Z,1.43
2019-04-23T01:10:34.895Z,1.43
2019-04-23T01:13:11.276Z,1.50
2019-04-23T01:15:42.572Z,1.93
2019-04-23T01:18:19.071Z,2.57
2019-04-23T01:20:52.795Z,4.03
2019-04-23T01:23:09.600Z,2.50
2019-04-23T01:25:52.266Z,1.93
2019-04-23T01:28:42.075Z,1.93
2019-04-23T01:31:16.654Z,3.50
2019-04-23T01:33:46.737Z,1.83
2019-04-23T01:38:45.562Z,1.50
2019-04-23T01:41:25.261Z,2.33
2019-04-23T01:43:47.372Z,1.97
2019-04-23T01:46:21.659Z,1.60
2019-04-23T01:48:51.891Z,1.83
2019-04-23T01:51:31.108Z,1.70
2019-04-23T01:53:56.649Z,2.97
2019-04-23T01:56:28.456Z,2.17
2019-04-23T01:59:05.151Z,3.70
2019-04-23T02:01:32.759Z,1.90
2019-04-23T02:04:15.255Z,2.10
2019-04-23T02:06:40.575Z,1.17
2019-04-23T02:09:05.027Z,1.50
2019-04-23T02:11:37.472Z,2.97
2019-04-23T02:14:16.396Z,1.40
2019-04-23T02:16:47.813Z,2.50
2019-04-23T02:19:16.772Z,1.50
2019-04-23T02:24:36.250Z,2.27
2019-04-23T02:26:55.704Z,1.37
2019-04-23T02:29:43.568Z,1.57
2019-04-23T02:34:57.883Z,1.13
2019-04-23T02:40:01.345Z,2.33
2019-04-23T02:42:40.949Z,2.10
2019-04-23T02:44:53.834Z,1.50
2019-04-23T02:50:20.061Z,2.70
2019-04-23T02:52:40.761Z,2.00
2019-04-23T02:55:09.188Z,2.80
2019-04-23T02:57:37.126Z,1.70
2019-04-23T03:02:54.512Z,2.10
2019-04-23T03:05:11.178Z,1.97
2019-04-23T03:07:49.601Z,2.30
2019-04-23T03:10:18.453Z,1.67
2019-04-23T03:12:50.249Z,2.40
2019-04-23T03:15:41.742Z,1.73
2019-04-23T03:18:39.245Z,1.60
2019-04-23T03:21:35.652Z,1.57
2019-04-23T03:24:20.807Z,2.57
2019-04-23T03:29:49.470Z,1.20
2019-04-23T03:35:09.805Z,1.50
2019-04-23T03:39:48.479Z,1.30
2019-04-23T03:42:02.229Z,2.23
2019-04-23T03:44:41.921Z,2.10
2019-04-23T03:47:04.103Z,2.07
2019-04-23T03:49:41.165Z,1.77
2019-04-23T03:52:15.988Z,2.07
2019-04-23T03:59:47.116Z,2.10
2019-04-23T04:04:45.127Z,1.50
2019-04-23T04:07:28.295Z,2.10
2019-04-23T04:09:47.628Z,1.57
2019-04-23T04:12:30.050Z,2.43
2019-04-23T04:14:57.644Z,1.93
2019-04-23T04:17:28.221Z,2.17
2019-04-23T04:19:56.695Z,3.33
2019-04-23T04:22:44.022Z,1.37
2019-04-23T04:25:03.230Z,1.60
2019-04-23T04:27:36.481Z,1.10
2019-04-23T04:32:43.175Z,1.43
2019-04-23T04:40:33.066Z,1.50
2019-04-23T04:42:46.842Z,2.07
2019-04-23T04:45:23.367Z,1.80
2019-04-23T04:47:44.774Z,2.43
2019-04-23T04:50:34.997Z,2.23
2019-04-23T04:55:33.929Z,2.20
2019-04-23T04:57:52.189Z,3.30
2019-04-23T05:00:34.725Z,1.57
2019-04-23T05:03:12.681Z,1.97
2019-04-23T05:05:51.365Z,1.50
2019-04-23T05:07:54.365Z,1.47
2019-04-23T05:15:27.937Z,1.70
2019-04-23T05:18:46.758Z,2.53
2019-04-23T05:23:50.940Z,2.23
2019-04-23T05:26:22.349Z,1.80
2019-04-23T05:31:25.835Z,2.97
2019-04-23T05:36:43.428Z,2.10
2019-04-23T05:39:01.723Z,2.33
2019-04-23T05:41:29.851Z,2.00
2019-04-23T05:44:05.210Z,1.60
2019-04-23T05:46:33.123Z,2.60
2019-04-23T05:49:09.404Z,1.90
2019-04-23T05:54:06.772Z,3.47
2019-04-23T05:56:42.263Z,1.70
2019-04-23T05:59:12.952Z,1.70
2019-04-23T06:04:17.733Z,2.20
2019-04-23T06:09:19.238Z,2.33
2019-04-23T06:14:25.103Z,3.00
2019-04-23T06:17:09.379Z,1.93
2019-04-23T06:19:36.798Z,2.30
2019-04-23T06:22:18.733Z,1.73
2019-04-23T06:24:41.404Z,2.77
2019-04-23T06:27:05.480Z,2.73
2019-04-23T06:29:35.699Z,1.93
2019-04-23T06:32:02.387Z,2.13
2019-04-23T06:42:08.078Z,2.03
2019-04-23T06:44:55.307Z,3.17
2019-04-23T06:47:21.911Z,3.17
2019-04-23T06:49:55.596Z,2.53
2019-04-23T06:52:23.336Z,3.00
2019-04-23T07:00:02.296Z,4.03
2019-04-23T07:02:34.296Z,2.97
2019-04-23T07:05:08.616Z,3.90
2019-04-23T07:10:05.984Z,2.63
2019-04-23T07:17:39.655Z,2.97
2019-04-23T07:20:21.515Z,2.87
2019-04-23T07:22:53.749Z,5.97
2019-04-23T07:25:17.270Z,3.97
2019-04-23T07:27:49.258Z,2.60
2019-04-23T07:30:24.088Z,3.63
2019-04-23T07:32:59.587Z,4.50
2019-04-23T07:35:25.020Z,3.40
2019-04-23T07:38:07.503Z,3.53
2019-04-23T07:40:54.584Z,4.23
2019-04-23T07:43:14.457Z,4.17
2019-04-23T07:46:10.374Z,5.70
2019-04-23T07:48:29.138Z,3.87
2019-04-23T07:51:10.886Z,6.23
2019-04-23T07:53:39.905Z,4.20
2019-04-23T07:56:15.833Z,5.00
2019-04-23T07:58:42.733Z,3.97
2019-04-23T08:01:14.208Z,3.47
2019-04-23T08:03:48.146Z,4.57
2019-04-23T08:06:19.297Z,4.63
2019-04-23T08:08:52.701Z,4.13
2019-04-23T08:16:34.228Z,4.33
2019-04-23T08:21:32.051Z,6.13
2019-04-23T08:24:18.199Z,3.30
2019-04-23T08:26:55.262Z,3.93
2019-04-23T08:29:30.966Z,4.97
2019-04-23T08:32:11.454Z,4.03
2019-04-23T08:34:50.834Z,4.93
2019-04-23T08:37:15.006Z,5.10
2019-04-23T08:39:42.913Z,4.40
2019-04-23T08:42:32.730Z,3.83
2019-04-23T08:45:28.716Z,3.07
2019-04-23T08:48:07.645Z,4.77
2019-04-23T08:50:49.037Z,4.43
2019-04-23T08:53:19.972Z,3.40
2019-04-23T08:55:44.260Z,3.03
2019-04-23T08:58:14.366Z,3.50
2019-04-23T09:00:55.246Z,5.00
2019-04-23T09:03:23.606Z,4.87
2019-04-23T09:05:52.690Z,3.53
2019-04-23T09:08:34.337Z,3.90
2019-04-23T09:10:56.662Z,5.07
2019-04-23T09:13:52.305Z,4.00
2019-04-23T09:15:55.569Z,4.83
2019-04-23T09:18:37.092Z,3.30
2019-04-23T09:20:57.154Z,4.57
2019-04-23T09:23:37.994Z,4.47
2019-04-23T09:25:57.549Z,3.47
2019-04-23T09:31:18.809Z,3.67
2019-04-23T09:36:53.629Z,4.63
2019-04-23T09:42:27.659Z,3.57
2019-04-23T09:45:23.328Z,4.13
2019-04-23T09:48:01.650Z,4.03
2019-04-23T09:50:38.425Z,3.63
2019-04-23T09:56:01.235Z,3.90
2019-04-23T09:58:07.826Z,3.47
2019-04-23T10:00:51.413Z,3.93
2019-04-23T10:03:04.790Z,4.03
2019-04-23T10:05:33.583Z,6.03
2019-04-23T10:08:07.932Z,3.37
2019-04-23T10:10:26.196Z,5.17
2019-04-23T10:12:58.005Z,5.17
2019-04-23T10:15:33.028Z,6.77
2019-04-23T10:18:00.386Z,4.23
2019-04-23T10:20:30.852Z,7.93
2019-04-23T10:23:02.281Z,5.27
2019-04-23T10:25:34.034Z,4.00
2019-04-23T10:28:10.913Z,4.37
2019-04-23T10:30:40.759Z,5.00
2019-04-23T10:33:11.600Z,5.40
2019-04-23T10:35:51.302Z,4.17
2019-04-23T10:38:16.366Z,4.00
2019-04-23T10:40:49.664Z,4.10
2019-04-23T10:43:17.225Z,4.43
2019-04-23T10:46:26.803Z,4.37
2019-04-23T10:51:51.345Z,5.67
2019-04-23T10:56:59.851Z,4.60
2019-04-23T10:59:38.898Z,6.07
2019-04-23T11:04:54.361Z,4.97
2019-04-23T11:07:28.664Z,4.20
2019-04-23T11:12:42.350Z,5.00
2019-04-23T11:20:36.830Z,4.80
2019-04-23T11:28:02.896Z,6.37
2019-04-23T11:33:10.044Z,4.50
2019-04-23T11:38:22.124Z,5.00
2019-04-23T11:40:35.303Z,4.27
2019-04-23T11:43:08.266Z,6.00
2019-04-23T11:45:48.492Z,4.37
2019-04-23T11:53:21.131Z,4.67
2019-04-23T11:56:09.284Z,6.67
2019-04-23T12:01:11.533Z,5.10
2019-04-23T12:03:47.210Z,5.30
2019-04-23T12:09:26.373Z,6.90
2019-04-23T12:14:39.126Z,6.17
2019-04-23T12:17:20.403Z,5.70
2019-04-23T12:19:52.970Z,5.10
2019-04-23T12:27:22.530Z,4.30
2019-04-23T12:40:15.721Z,6.20
2019-04-23T12:45:21.287Z,5.00
2019-04-23T12:55:36.257Z,5.37
2019-04-23T13:05:28.795Z,7.97
2019-04-23T13:08:05.118Z,6.67
2019-04-23T13:10:37.605Z,5.57
2019-04-23T13:13:11.662Z,4.87
2019-04-23T13:15:48.956Z,6.47
2019-04-23T13:18:23.678Z,6.80
2019-04-23T13:28:21.663Z,5.37
2019-04-23T13:30:59.060Z,5.27
2019-04-23T13:33:37.951Z,6.27
2019-04-23T13:38:36.397Z,5.50
2019-04-23T13:43:43.753Z,4.73
2019-04-23T13:48:31.485Z,5.20
2019-04-23T13:51:14.251Z,5.27
2019-04-23T13:56:11.214Z,4.87
2019-04-23T13:58:44.986Z,6.60
2019-04-23T14:13:55.090Z,5.60
2019-04-23T14:28:58.890Z,6.07
2019-04-23T14:31:37.175Z,4.93
2019-04-23T14:34:11.479Z,8.27
2019-04-23T14:36:47.985Z,5.97
2019-04-23T14:39:11.320Z,4.70
2019-04-23T14:41:47.521Z,6.37
2019-04-23T14:49:41.007Z,4.90
2019-04-23T14:55:11.433Z,4.97
2019-04-23T14:57:21.280Z,5.40
2019-04-23T14:59:39.318Z,5.13
2019-04-23T15:02:13.696Z,5.73
2019-04-23T15:04:47.585Z,5.67
2019-04-23T15:07:25.869Z,4.00
2019-04-23T15:09:57.365Z,6.03
2019-04-23T15:12:27.766Z,5.70
2019-04-23T15:15:02.330Z,4.93
2019-04-23T15:20:06.370Z,6.07
2019-04-23T15:22:32.957Z,4.07
2019-04-23T15:25:26.227Z,5.10
2019-04-23T15:28:05.928Z,4.47
2019-04-23T15:29:57.810Z,4.73
2019-04-23T15:32:53.512Z,5.93
2019-04-23T15:40:15.148Z,5.50
2019-04-23T15:42:57.640Z,6.70
2019-04-23T15:45:19.472Z,4.80
2019-04-23T15:47:59.864Z,6.33
2019-04-23T15:55:44.196Z,4.33
2019-04-23T15:58:09.917Z,6.60
2019-04-23T16:00:25.848Z,4.30
2019-04-23T16:02:33.333Z,5.70
2019-04-23T16:05:03.805Z,5.43
2019-04-23T16:07:53.319Z,5.93
2019-04-23T16:10:46.097Z,4.80
2019-04-23T16:13:24.289Z,7.07
2019-04-23T16:18:29.972Z,5.50
2019-04-23T16:20:57.332Z,3.60
2019-04-23T16:23:21.586Z,4.67
2019-04-23T16:26:03.229Z,3.83
2019-04-23T16:28:28.967Z,4.37
2019-04-23T16:31:05.458Z,3.13
2019-04-23T16:33:25.875Z,3.77
2019-04-23T16:36:11.172Z,4.27
2019-04-23T16:41:17.447Z,4.40
2019-04-23T16:43:48.618Z,5.10
2019-04-23T16:46:18.156Z,5.83
2019-04-23T16:48:58.382Z,4.90
2019-04-23T16:51:24.715Z,5.10
2019-04-23T16:53:54.913Z,7.13
2019-04-23T16:56:25.907Z,4.70
2019-04-23T16:59:08.741Z,4.67
2019-04-23T17:01:20.730Z,4.90
2019-04-23T17:04:05.036Z,4.83
2019-04-23T17:06:31.024Z,3.63
2019-04-23T17:08:59.888Z,3.20
2019-04-23T17:11:34.029Z,3.90
2019-04-23T17:14:11.595Z,3.87
2019-04-23T17:19:24.197Z,4.63
2019-04-23T17:21:39.010Z,6.50
2019-04-23T17:24:20.608Z,4.57
2019-04-23T17:26:46.163Z,3.17
2019-04-23T17:31:49.021Z,3.70
2019-04-23T17:34:30.860Z,3.10
2019-04-23T17:37:12.121Z,2.60
2019-04-23T17:40:16.162Z,3.17
2019-04-23T17:42:51.647Z,3.20
2019-04-23T17:48:13.231Z,3.47
2019-04-23T17:56:16.431Z,2.30
2019-04-23T18:01:22.300Z,2.03
2019-04-23T18:06:30.050Z,2.43
2019-04-23T18:09:00.757Z,2.60
2019-04-23T18:11:25.525Z,3.60
2019-04-23T18:13:57.191Z,3.07
2019-04-23T18:16:36.945Z,3.63
2019-04-23T18:21:44.017Z,2.77
2019-04-23T18:32:32.770Z,2.60
2019-04-23T18:35:15.460Z,2.43
2019-04-23T18:37:36.051Z,2.40
2019-04-23T18:40:04.852Z,1.77
2019-04-23T18:45:18.813Z,2.53
2019-04-23T18:47:50.362Z,2.10
2019-04-23T18:50:24.698Z,1.83
2019-04-23T18:55:34.993Z,2.50
2019-04-23T18:57:56.914Z,1.57
2019-04-23T19:00:42.851Z,1.60
2019-04-23T19:03:29.375Z,2.07
2019-04-23T19:06:14.962Z,1.40
2019-04-23T19:09:01.340Z,2.10
2019-04-23T19:11:37.178Z,1.40
2019-04-23T19:13:57.328Z,2.00
2019-04-23T19:19:03.043Z,2.10
2019-04-23T19:21:59.396Z,1.50
2019-04-23T19:24:03.508Z,1.60
2019-04-23T19:31:54.124Z,2.97
2019-04-23T19:37:23.141Z,1.93
2019-04-23T19:42:06.790Z,1.40
2019-04-23T19:44:41.224Z,1.87
2019-04-23T19:47:12.622Z,1.67
2019-04-23T19:52:12.791Z,1.53
2019-04-23T19:54:52.052Z,1.10
2019-04-23T19:57:19.424Z,1.20
2019-04-23T19:59:51.178Z,1.20
2019-04-23T20:02:27.126Z,1.10
2019-04-23T20:07:30.898Z,1.20
2019-04-23T20:09:51.627Z,2.40
2019-04-23T20:12:26.824Z,1.43
2019-04-23T20:14:56.529Z,1.20
2019-04-23T20:17:39.446Z,1.30
2019-04-23T20:20:04.421Z,1.20
2019-04-23T20:25:43.857Z,1.07
2019-04-23T20:31:33.488Z,1.10
2019-04-23T20:35:46.922Z,1.37
2019-04-23T20:40:56.966Z,0.90
2019-04-23T20:43:36.083Z,1.93
2019-04-23T20:45:58.785Z,2.60
2019-04-23T20:50:56.430Z,1.53
2019-04-23T20:53:43.358Z,1.47
2019-04-23T20:56:18.331Z,1.80
2019-04-23T21:01:37.019Z,1.60
2019-04-23T21:04:00.373Z,1.50
2019-04-23T21:06:44.972Z,2.17
2019-04-23T21:12:05.085Z,2.03
2019-04-23T21:14:33.497Z,2.10
2019-04-23T21:16:51.019Z,2.13
2019-04-23T21:19:34.116Z,1.70
2019-04-23T21:22:09.320Z,2.27
2019-04-23T21:24:42.932Z,1.90
2019-04-23T21:30:05.236Z,3.17
2019-04-23T21:32:46.580Z,3.90
2019-04-23T21:35:07.991Z,3.40
2019-04-23T21:37:54.196Z,7.27
2019-04-23T21:43:47.561Z,5.73
2019-04-23T21:46:15.808Z,4.77
2019-04-23T21:48:53.064Z,4.27
2019-04-23T21:51:28.606Z,3.73
2019-04-23T21:53:50.712Z,5.43
2019-04-23T21:56:15.321Z,5.03
2019-04-23T21:58:53.363Z,5.60
2019-04-23T22:01:27.939Z,5.63
2019-04-23T22:06:31.525Z,3.90
2019-04-23T22:08:58.925Z,4.00
2019-04-23T22:16:37.328Z,2.70
2019-04-23T22:19:13.919Z,3.23
2019-04-23T22:21:40.807Z,2.40
2019-04-23T22:24:05.601Z,3.40
2019-04-23T22:31:43.025Z,3.27
2019-04-23T22:36:51.914Z,2.63
2019-04-23T22:39:17.700Z,2.37
2019-04-23T22:42:03.202Z,1.90
2019-04-23T22:44:21.049Z,1.93
2019-04-23T22:46:56.408Z,1.20
2019-04-23T22:49:42.322Z,1.83
2019-04-23T22:52:16.399Z,1.30
2019-04-23T22:54:30.507Z,1.77
2019-04-23T22:57:00.603Z,1.47
2019-04-23T23:02:27.006Z,2.00
2019-04-23T23:05:10.040Z,2.83
2019-04-23T23:07:30.398Z,2.23
2019-04-23T23:10:06.885Z,1.60
2019-04-23T23:12:44.917Z,1.60
2019-04-23T23:15:08.173Z,2.40
2019-04-23T23:17:45.407Z,2.97
2019-04-23T23:20:15.719Z,4.97
2019-04-23T23:22:51.314Z,5.30
2019-04-23T23:25:25.257Z,5.90
2019-04-23T23:27:53.728Z,5.93
2019-04-23T23:30:23.394Z,5.80
2019-04-23T23:32:51.780Z,3.90
2019-04-23T23:35:22.651Z,4.90
2019-04-23T23:37:56.431Z,2.93
2019-04-23T23:40:25.875Z,4.30
2019-04-23T23:43:08.784Z,6.50
2019-04-23T23:45:25.667Z,5.07
2019-04-23T23:47:59.549Z,5.47
2019-04-23T23:50:40.119Z,7.03
2019-04-23T23:53:02.589Z,5.53
2019-04-23T23:55:33.141Z,3.83
2019-04-23T23:58:23.539Z,4.30
